Time;durP1;ratioP1;P1;durP2;ratioP2;P2;SDS_P1;SDS_P2;PMS_P1;PMS_P2;Temp;Humidity;BMP_temperature;BMP_pressure;BME280_temperature;BME280_humidity;BME280_pressure;Samples;Min_cycle;Max_cycle;Signal;HPM_P1;HPM_P2
2021/03/31 04:15:12;;;;;;;6.05;1.23;;;3.30;90.70;;;;;;5095844;28;20044;-73
2021/03/31 04:17:40;;;;;;;5.68;1.23;;;3.30;90.80;;;;;;5095695;28;20430;-71
2021/03/31 04:20:14;;;;;;;8.35;1.52;;;3.30;90.90;;;;;;5095274;28;20016;-70
2021/03/31 04:22:41;;;;;;;13.68;1.67;;;3.30;90.90;;;;;;5094815;28;20028;-71
2021/03/31 04:25:10;;;;;;;11.43;1.55;;;3.30;90.70;;;;;;5080745;28;20169;-69
2021/03/31 04:27:37;;;;;;;7.70;1.15;;;3.30;90.60;;;;;;5094931;28;20213;-69
2021/03/31 04:30:07;;;;;;;7.13;1.20;;;3.40;90.50;;;;;;5094939;28;20024;-71
2021/03/31 04:32:34;;;;;;;10.02;1.20;;;3.40;90.50;;;;;;5076558;28;20056;-71
2021/03/31 04:35:03;;;;;;;10.30;1.50;;;3.40;90.20;;;;;;5094588;28;20028;-71
2021/03/31 04:37:29;;;;;;;6.53;1.27;;;3.50;90.10;;;;;;5094551;28;20391;-70
2021/03/31 04:39:55;;;;;;;13.75;1.40;;;3.50;90.00;;;;;;5094112;28;20020;-72
2021/03/31 04:42:22;;;;;;;7.30;1.48;;;3.50;89.80;;;;;;5093988;28;20441;-70
2021/03/31 04:44:48;;;;;;;16.08;1.52;;;3.60;89.20;;;;;;5094372;28;20115;-74
2021/03/31 04:47:13;;;;;;;13.02;1.73;;;3.90;88.50;;;;;;5090698;28;20103;-71
2021/03/31 04:49:39;;;;;;;12.95;1.27;;;4.20;87.50;;;;;;5093916;28;20493;-73
2021/03/31 04:52:05;;;;;;;13.02;1.38;;;4.50;85.60;;;;;;5093744;28;20032;-73
2021/03/31 04:54:31;;;;;;;10.20;1.42;;;4.70;83.80;;;;;;5093760;28;20031;-73
2021/03/31 04:56:56;;;;;;;12.43;1.52;;;4.80;82.40;;;;;;5093393;28;20446;-73
2021/03/31 04:59:22;;;;;;;8.73;1.55;;;5.00;81.70;;;;;;5090617;28;20073;-73
2021/03/31 05:01:48;;;;;;;16.67;1.98;;;5.20;80.70;;;;;;5093757;28;20102;-74
2021/03/31 05:04:13;;;;;;;10.70;1.55;;;5.50;79.60;;;;;;5093095;28;20023;-74
2021/03/31 05:06:39;;;;;;;13.98;2.70;;;5.90;78.20;;;;;;5093332;28;20034;-74
2021/03/31 05:09:05;;;;;;;12.48;1.67;;;6.30;76.50;;;;;;5092930;28;20020;-74
2021/03/31 05:14:53;;;;;;;9.90;1.60;;;6.80;72.60;;;;;;5090618;28;20090;-74
2021/03/31 05:17:19;;;;;;;8.40;1.13;;;7.10;71.90;;;;;;5090717;28;20078;-75
2021/03/31 05:19:45;;;;;;;7.97;1.17;;;7.30;70.70;;;;;;5093074;28;20017;-75
2021/03/31 05:22:11;;;;;;;13.63;1.83;;;7.50;70.20;;;;;;5090239;28;20024;-79
2021/03/31 05:24:36;;;;;;;15.88;1.73;;;7.70;69.20;;;;;;5087271;28;20029;-78
2021/03/31 05:27:03;;;;;;;13.02;1.80;;;7.90;68.30;;;;;;5093434;28;20364;-78
2021/03/31 05:29:28;;;;;;;9.63;1.30;;;8.10;67.40;;;;;;5090486;28;20039;-77
2021/03/31 05:31:54;;;;;;;8.50;1.30;;;8.40;67.00;;;;;;5093549;28;20032;-82
2021/03/31 05:34:20;;;;;;;13.13;1.50;;;8.60;65.90;;;;;;5093202;28;20425;-75
2021/03/31 05:36:45;;;;;;;11.73;2.15;;;8.80;65.10;;;;;;5093097;28;20028;-79
2021/03/31 05:39:11;;;;;;;19.73;2.08;;;9.40;65.60;;;;;;5093665;28;20020;-72
2021/03/31 05:41:37;;;;;;;8.13;1.40;;;9.40;63.00;;;;;;5092998;28;20107;-76
2021/03/31 05:44:04;;;;;;;17.15;1.70;;;9.60;63.20;;;;;;5093204;28;20038;-76
2021/03/31 05:46:31;;;;;;;11.48;2.22;;;9.70;62.10;;;;;;5092986;28;20053;-77
2021/03/31 05:48:58;;;;;;;7.82;1.27;;;9.90;61.10;;;;;;5091644;28;20066;-75
2021/03/31 05:51:24;;;;;;;11.45;2.15;;;9.80;60.30;;;;;;5092530;28;20028;-76
2021/03/31 05:53:50;;;;;;;6.57;1.48;;;9.80;60.40;;;;;;5093116;28;20368;-79
2021/03/31 05:56:16;;;;;;;9.27;1.10;;;9.80;60.00;;;;;;5091961;28;20028;-79
2021/03/31 05:58:42;;;;;;;10.95;1.88;;;9.90;59.90;;;;;;5092166;28;20107;-78
2021/03/31 06:01:08;;;;;;;8.02;1.63;;;9.80;59.90;;;;;;5091975;28;20036;-79
2021/03/31 06:03:34;;;;;;;6.63;1.38;;;9.90;59.80;;;;;;5092094;28;20036;-78
2021/03/31 06:06:00;;;;;;;11.63;2.05;;;10.00;59.60;;;;;;5092654;28;20029;-80
2021/03/31 06:08:26;;;;;;;39.60;3.42;;;10.00;59.30;;;;;;5092576;28;20020;-79
2021/03/31 06:11:02;;;;;;;8.52;1.40;;;10.20;59.80;;;;;;5092342;28;20040;-79
2021/03/31 06:13:51;;;;;;;10.52;1.50;;;10.30;58.80;;;;;;5092256;28;20416;-78
2021/03/31 06:16:45;;;;;;;13.85;1.95;;;10.40;58.60;;;;;;5089244;28;20161;-72
2021/03/31 06:19:21;;;;;;;8.57;1.60;;;10.50;58.70;;;;;;5092542;28;20024;-75
2021/03/31 06:22:15;;;;;;;13.43;1.48;;;10.80;60.70;;;;;;5082531;28;20024;-75
2021/03/31 06:24:48;;;;;;;10.88;1.17;;;10.80;59.00;;;;;;5088833;28;20050;-77
2021/03/31 06:27:25;;;;;;;7.97;1.45;;;10.50;57.30;;;;;;5092467;28;20226;-77
2021/03/31 06:30:04;;;;;;;8.45;1.30;;;10.20;57.90;;;;;;5092502;28;20099;-77
2021/03/31 06:32:41;;;;;;;7.60;1.55;;;10.00;57.60;;;;;;5092104;28;20050;-77
2021/03/31 06:35:19;;;;;;;6.88;1.33;;;9.90;57.80;;;;;;5092321;28;20024;-78
2021/03/31 06:37:45;;;;;;;10.15;1.27;;;9.80;57.70;;;;;;5092444;28;20424;-77
2021/03/31 06:40:30;;;;;;;12.73;1.80;;;9.80;58.10;;;;;;5091724;28;20379;-77
2021/03/31 06:43:13;;;;;;;5.78;1.25;;;9.70;57.70;;;;;;5091744;28;20103;-76
2021/03/31 06:45:46;;;;;;;7.50;1.55;;;9.40;58.00;;;;;;5082607;28;20020;-76
2021/03/31 06:48:11;;;;;;;14.48;1.17;;;9.30;58.10;;;;;;5092073;28;20024;-76
2021/03/31 06:50:37;;;;;;;10.88;1.63;;;9.10;58.30;;;;;;5081652;28;20369;-76
2021/03/31 06:53:07;;;;;;;12.40;1.60;;;9.10;58.10;;;;;;5091853;28;20043;-76
2021/03/31 06:55:33;;;;;;;12.20;2.15;;;9.00;58.50;;;;;;5091851;28;20070;-77
2021/03/31 06:58:05;;;;;;;6.30;1.13;;;9.00;58.50;;;;;;5091994;28;20042;-72
2021/03/31 07:00:33;;;;;;;6.00;1.40;;;9.10;58.40;;;;;;5107403;28;20058;-70
2021/03/31 07:03:07;;;;;;;4.60;1.52;;;9.20;59.30;;;;;;5090901;28;20286;-70
2021/03/31 07:05:36;;;;;;;5.95;1.17;;;9.50;60.70;;;;;;5091600;28;20030;-73
2021/03/31 07:08:12;;;;;;;6.13;1.23;;;9.70;60.10;;;;;;5091766;28;20024;-73
2021/03/31 07:10:50;;;;;;;9.50;1.42;;;9.40;57.70;;;;;;5091715;28;20036;-73
2021/03/31 07:13:37;;;;;;;6.35;1.20;;;9.40;58.20;;;;;;5078163;28;20173;-73
2021/03/31 07:16:05;;;;;;;9.85;1.50;;;9.40;57.80;;;;;;5082307;28;20037;-73
2021/03/31 07:18:32;;;;;;;7.88;1.08;;;10.00;67.10;;;;;;5072572;28;20507;-73
2021/03/31 07:20:59;;;;;;;7.10;1.30;;;10.90;65.60;;;;;;5073404;28;20064;-74
2021/03/31 07:23:26;;;;;;;5.50;1.48;;;11.10;57.80;;;;;;5091239;28;20016;-74
2021/03/31 07:25:54;;;;;;;6.90;0.90;;;10.20;56.50;;;;;;5091413;28;20047;-78
2021/03/31 07:28:30;;;;;;;8.75;1.20;;;9.40;56.30;;;;;;5091169;28;20028;-77
2021/03/31 07:30:57;;;;;;;9.63;1.27;;;8.90;57.60;;;;;;5089047;28;20099;-73
2021/03/31 07:33:28;;;;;;;7.95;1.27;;;8.80;59.10;;;;;;5090997;28;20028;-76
2021/03/31 07:35:55;;;;;;;9.70;1.60;;;8.50;58.40;;;;;;5091183;28;20111;-76
2021/03/31 07:38:23;;;;;;;8.48;1.25;;;8.30;58.90;;;;;;5090984;28;20491;-78
2021/03/31 07:40:51;;;;;;;11.60;1.38;;;8.30;59.00;;;;;;5091193;28;20035;-77
2021/03/31 07:43:25;;;;;;;21.85;2.05;;;8.10;59.10;;;;;;5091345;28;20109;-76
2021/03/31 07:46:03;;;;;;;10.68;1.58;;;8.00;59.60;;;;;;5079839;28;20024;-72
2021/03/31 07:48:30;;;;;;;8.02;1.02;;;8.00;60.00;;;;;;5089192;28;20066;-78
2021/03/31 07:50:56;;;;;;;8.48;1.40;;;8.10;60.10;;;;;;5088842;28;20028;-71
2021/03/31 07:53:23;;;;;;;7.88;1.25;;;8.00;59.80;;;;;;5090812;28;20020;-70
2021/03/31 07:55:52;;;;;;;12.07;1.25;;;7.90;59.30;;;;;;5088447;28;20410;-79
2021/03/31 07:58:30;;;;;;;10.57;1.60;;;7.80;59.70;;;;;;5080147;28;20029;-73
2021/03/31 08:01:01;;;;;;;8.57;1.25;;;7.90;60.40;;;;;;5090467;28;20430;-77
2021/03/31 08:03:32;;;;;;;11.50;1.65;;;7.90;60.10;;;;;;5091080;28;20028;-73
2021/03/31 08:06:19;;;;;;;19.98;1.60;;;7.90;60.00;;;;;;5090301;28;20028;-71
2021/03/31 08:08:45;;;;;;;12.93;1.42;;;8.20;65.20;;;;;;5091676;28;20020;-72
2021/03/31 08:11:40;;;;;;;5.03;1.50;;;8.50;64.70;;;;;;5090270;28;20031;-72
2021/03/31 08:14:06;;;;;;;6.00;1.27;;;8.50;59.10;;;;;;5091291;28;20048;-72
2021/03/31 08:16:37;;;;;;;8.00;1.15;;;8.30;59.30;;;;;;5094499;28;20119;-72
2021/03/31 08:19:10;;;;;;;11.40;1.75;;;8.20;59.70;;;;;;5094798;28;20024;-72
2021/03/31 08:21:35;;;;;;;7.63;1.55;;;8.10;59.80;;;;;;5094655;28;20426;-72
2021/03/31 08:24:03;;;;;;;4.78;1.38;;;8.00;59.80;;;;;;5094591;28;20031;-72
2021/03/31 08:26:34;;;;;;;9.48;1.52;;;7.90;60.00;;;;;;5094117;28;20054;-72
2021/03/31 08:29:04;;;;;;;10.95;1.50;;;7.90;59.90;;;;;;5094773;28;20027;-72
2021/03/31 08:31:35;;;;;;;;;;;7.90;60.00;;;;;;5094654;28;20027;-71
2021/03/31 08:34:01;;;;;;;10.38;1.17;;;7.90;59.40;;;;;;5094435;28;19930;-72
2021/03/31 08:36:27;;;;;;;7.85;1.13;;;7.80;59.70;;;;;;5093971;28;20036;-72
2021/03/31 08:38:54;;;;;;;8.02;1.30;;;7.80;59.80;;;;;;5094460;28;20028;-72
2021/03/31 08:41:24;;;;;;;15.05;1.52;;;7.90;60.00;;;;;;5094097;28;20484;-72
2021/03/31 08:43:52;;;;;;;17.45;1.70;;;7.90;60.00;;;;;;5094302;28;20360;-72
2021/03/31 08:46:31;;;;;;;4.13;0.90;;;8.00;59.80;;;;;;5094256;28;20032;-71
2021/03/31 08:48:57;;;;;;;6.13;1.00;;;8.00;59.40;;;;;;5080353;28;20024;-72
2021/03/31 08:51:24;;;;;;;22.40;1.63;;;8.00;59.40;;;;;;5093543;28;20027;-71
2021/03/31 08:53:50;;;;;;;5.18;1.10;;;8.10;62.80;;;;;;5094101;28;20028;-72
2021/03/31 08:56:17;;;;;;;6.82;1.20;;;8.30;59.80;;;;;;5093884;28;20032;-71
2021/03/31 08:58:43;;;;;;;6.30;1.50;;;8.30;59.10;;;;;;5093942;28;20085;-72
2021/03/31 09:01:09;;;;;;;5.57;1.20;;;8.30;58.80;;;;;;5093862;28;20028;-73
2021/03/31 09:03:34;;;;;;;4.97;1.00;;;8.40;58.80;;;;;;5093788;28;20063;-74
2021/03/31 09:06:02;;;;;;;5.97;1.23;;;8.40;58.60;;;;;;5093891;28;20039;-75
2021/03/31 09:08:30;;;;;;;17.85;1.75;;;8.50;58.40;;;;;;5093712;28;20399;-75
2021/03/31 09:11:04;;;;;;;8.30;1.50;;;8.60;60.30;;;;;;5094157;28;20158;-75
2021/03/31 09:13:33;;;;;;;6.80;1.20;;;8.70;59.00;;;;;;5093263;28;20031;-73
2021/03/31 09:16:01;;;;;;;10.30;1.30;;;9.00;66.20;;;;;;5093879;28;20032;-75
2021/03/31 09:18:27;;;;;;;9.02;0.88;;;9.90;67.80;;;;;;5093747;28;20020;-70
2021/03/31 09:20:53;;;;;;;6.05;1.10;;;9.80;58.70;;;;;;5093615;28;20028;-73
2021/03/31 09:23:24;;;;;;;5.85;1.10;;;9.50;58.00;;;;;;5093201;28;20403;-73
2021/03/31 09:26:01;;;;;;;9.77;1.00;;;9.30;57.60;;;;;;5089218;28;20111;-72
2021/03/31 09:28:28;;;;;;;12.18;1.38;;;9.10;57.60;;;;;;5093028;28;20052;-72
2021/03/31 09:30:57;;;;;;;6.72;1.13;;;9.00;57.70;;;;;;5075631;28;20491;-71
2021/03/31 09:33:29;;;;;;;5.93;0.80;;;8.90;57.60;;;;;;5087921;28;20028;-72
2021/03/31 09:35:55;;;;;;;10.02;1.38;;;8.90;58.00;;;;;;5093454;28;20077;-70
2021/03/31 09:38:27;;;;;;;12.95;1.58;;;8.90;57.90;;;;;;5093373;28;20028;-70
2021/03/31 09:41:06;;;;;;;7.78;1.23;;;8.90;58.20;;;;;;5093286;28;20051;-71
2021/03/31 09:43:33;;;;;;;6.38;1.25;;;8.90;57.50;;;;;;5093098;28;20020;-71
2021/03/31 09:45:59;;;;;;;10.77;1.35;;;8.90;57.90;;;;;;5093087;28;20028;-69
2021/03/31 09:48:25;;;;;;;6.32;1.10;;;8.90;57.90;;;;;;5088390;28;20028;-71
2021/03/31 09:50:53;;;;;;;8.88;0.90;;;8.80;57.80;;;;;;5091133;28;20483;-71
2021/03/31 09:53:23;;;;;;;1.20;0.77;;;8.90;57.60;;;;;;5074497;28;20028;-70
2021/03/31 09:55:49;;;;;;;4.03;1.00;;;8.90;57.80;;;;;;5092770;28;20067;-71
2021/03/31 09:58:23;;;;;;;2.72;0.70;;;8.80;57.40;;;;;;5092805;28;20120;-71
2021/03/31 10:00:50;;;;;;;3.47;0.85;;;8.90;57.30;;;;;;5093300;28;20173;-70
2021/03/31 10:03:17;;;;;;;3.50;0.80;;;8.80;58.00;;;;;;5093129;28;20032;-70
2021/03/31 10:05:43;;;;;;;8.27;1.08;;;8.90;58.20;;;;;;5092489;28;20016;-69
2021/03/31 10:08:21;;;;;;;2.63;1.00;;;8.90;57.40;;;;;;5092949;28;20035;-69
2021/03/31 10:10:48;;;;;;;4.93;0.95;;;8.90;57.10;;;;;;5092610;28;20610;-69
2021/03/31 10:13:15;;;;;;;4.13;1.00;;;8.90;57.40;;;;;;5084142;28;20082;-69
2021/03/31 10:15:54;;;;;;;6.60;1.35;;;8.90;57.30;;;;;;5092188;28;20055;-69
2021/03/31 10:18:20;;;;;;;3.00;1.02;;;9.00;57.40;;;;;;5084280;28;20028;-70
2021/03/31 10:20:47;;;;;;;3.03;0.80;;;9.00;57.70;;;;;;5092441;28;20016;-70
2021/03/31 10:23:31;;;;;;;5.72;1.00;;;9.00;57.50;;;;;;5092557;28;20032;-69
2021/03/31 10:26:19;;;;;;;5.07;1.20;;;9.00;57.30;;;;;;5092333;28;20125;-71
2021/03/31 10:28:45;;;;;;;13.90;1.48;;;9.00;57.40;;;;;;5085525;28;20027;-71
2021/03/31 10:31:21;;;;;;;5.55;1.30;;;9.00;58.00;;;;;;5092456;28;20028;-73
2021/03/31 10:33:48;;;;;;;4.15;0.70;;;9.00;57.70;;;;;;5084849;28;20499;-72
2021/03/31 10:48:27;;;;;;;9.18;1.23;;;9.10;57.90;;;;;;5092086;28;20031;-70
2021/03/31 10:50:56;;;;;;;12.65;1.45;;;9.10;57.80;;;;;;5091842;28;20035;-69
2021/03/31 10:53:34;;;;;;;5.15;0.70;;;9.10;58.30;;;;;;5091180;28;20032;-70
2021/03/31 10:56:01;;;;;;;2.63;0.70;;;9.10;57.40;;;;;;5092058;28;20107;-70
2021/03/31 10:58:27;;;;;;;2.58;0.70;;;9.00;57.40;;;;;;5092057;28;20036;-78
2021/03/31 11:00:54;;;;;;;7.88;1.80;;;8.90;57.70;;;;;;5092194;28;20020;-70
2021/03/31 11:03:21;;;;;;;3.42;1.00;;;8.90;57.80;;;;;;5092159;28;20125;-70
2021/03/31 11:05:46;;;;;;;6.72;1.58;;;8.90;57.80;;;;;;5091629;28;20056;-70
2021/03/31 11:08:12;;;;;;;2.60;0.60;;;8.90;57.90;;;;;;5092188;28;20047;-71
2021/03/31 11:10:38;;;;;;;5.35;1.10;;;8.80;57.80;;;;;;5091940;28;20103;-71
2021/03/31 11:13:04;;;;;;;3.13;0.70;;;8.80;57.80;;;;;;5091864;28;20028;-71
2021/03/31 11:15:29;;;;;;;2.40;0.75;;;8.80;58.10;;;;;;5091476;28;20495;-73
2021/03/31 11:18:14;;;;;;;2.72;0.80;;;8.80;57.80;;;;;;5092047;28;20028;-72
2021/03/31 11:26:08;;;;;;;3.03;0.70;;;8.90;58.10;;;;;;5091769;28;20150;-71
2021/03/31 11:28:37;;;;;;;5.05;1.33;;;8.90;57.90;;;;;;5091618;28;20110;-67
2021/03/31 11:31:05;;;;;;;3.00;0.60;;;8.90;58.80;;;;;;5091384;28;20490;-71
2021/03/31 11:33:31;;;;;;;11.50;0.90;;;9.60;61.70;;;;;;5091159;28;20038;-71
2021/03/31 11:35:57;;;;;;;11.20;0.80;;;9.50;57.90;;;;;;5091393;28;20028;-71
2021/03/31 11:38:23;;;;;;;1.08;0.47;;;9.40;57.80;;;;;;5091276;28;20062;-71
2021/03/31 11:40:49;;;;;;;2.45;0.52;;;9.20;57.90;;;;;;5091675;28;20418;-71
2021/03/31 11:43:16;;;;;;;0.65;0.50;;;9.10;58.40;;;;;;5091610;28;20369;-70
2021/03/31 11:45:43;;;;;;;5.90;0.98;;;9.10;58.10;;;;;;5091592;28;20446;-71
2021/03/31 11:48:09;;;;;;;7.35;0.70;;;9.10;58.50;;;;;;5091390;28;20429;-71
2021/03/31 11:50:35;;;;;;;6.00;0.50;;;9.10;58.40;;;;;;5094422;28;20024;-71
2021/03/31 11:53:01;;;;;;;4.53;0.80;;;9.10;58.70;;;;;;5095293;28;20102;-71
2021/03/31 11:55:27;;;;;;;7.15;1.20;;;9.10;58.70;;;;;;5095324;28;20024;-71
2021/03/31 11:57:53;;;;;;;3.92;0.63;;;9.10;58.90;;;;;;5095128;28;20039;-71
2021/03/31 12:00:21;;;;;;;7.45;0.80;;;9.10;59.80;;;;;;5095405;28;20515;-71
2021/03/31 12:02:48;;;;;;;12.23;1.08;;;9.70;67.10;;;;;;5095223;28;20024;-72
2021/03/31 12:05:14;;;;;;;4.38;0.77;;;9.90;58.70;;;;;;5095517;28;20060;-72
2021/03/31 12:07:40;;;;;;;5.25;0.47;;;9.60;58.20;;;;;;5095104;28;20020;-71
2021/03/31 12:10:07;;;;;;;0.77;0.57;;;9.40;58.30;;;;;;5095067;28;20032;-72
2021/03/31 12:12:34;;;;;;;5.70;1.27;;;9.30;58.40;;;;;;5094600;28;20020;-72
2021/03/31 12:15:00;;;;;;;7.90;0.60;;;9.10;58.60;;;;;;5094804;28;20040;-71
2021/03/31 12:17:26;;;;;;;1.83;0.40;;;9.10;58.70;;;;;;5081990;28;20127;-72
2021/03/31 12:19:52;;;;;;;6.60;0.50;;;9.10;58.60;;;;;;5093257;28;20587;-72
2021/03/31 12:22:17;;;;;;;5.63;0.50;;;9.00;58.80;;;;;;5094685;28;20028;-72
2021/03/31 12:24:43;;;;;;;1.73;0.55;;;9.00;58.80;;;;;;5094968;28;20101;-71
2021/03/31 12:27:10;;;;;;;3.88;0.52;;;9.00;58.80;;;;;;5095204;28;20054;-71
2021/03/31 12:29:36;;;;;;;2.50;0.50;;;9.00;58.60;;;;;;5094847;28;20130;-72
2021/03/31 12:32:02;;;;;;;3.83;0.60;;;9.10;59.00;;;;;;5094595;28;20467;-72
2021/03/31 12:34:29;;;;;;;4.63;0.68;;;9.10;59.00;;;;;;5094608;28;20074;-72
2021/03/31 12:36:55;;;;;;;7.32;0.50;;;9.00;58.50;;;;;;5094363;28;20036;-72
2021/03/31 12:39:22;;;;;;;0.45;0.40;;;9.00;58.70;;;;;;5094726;28;20028;-73
2021/03/31 12:41:48;;;;;;;1.55;0.40;;;9.00;58.40;;;;;;5094516;28;20047;-72
2021/03/31 12:44:15;;;;;;;2.28;0.40;;;9.00;58.70;;;;;;5094516;28;20028;-72
2021/03/31 12:46:41;;;;;;;8.32;0.80;;;9.00;58.40;;;;;;5094492;28;20038;-72
2021/03/31 12:49:07;;;;;;;2.20;0.40;;;9.10;58.50;;;;;;5094560;28;20020;-72
2021/03/31 12:51:35;;;;;;;5.15;0.70;;;9.00;58.40;;;;;;5094030;28;20020;-72
2021/03/31 12:54:10;;;;;;;4.80;0.80;;;9.10;58.40;;;;;;5093970;28;20057;-73
2021/03/31 12:56:36;;;;;;;4.88;0.80;;;9.10;58.60;;;;;;5093958;28;20463;-72
2021/03/31 12:59:02;;;;;;;3.58;0.43;;;9.10;58.70;;;;;;5093881;28;20016;-72
2021/03/31 13:01:28;;;;;;;1.42;0.40;;;9.10;58.50;;;;;;5093235;28;20368;-72
2021/03/31 13:03:54;;;;;;;2.53;0.40;;;9.20;58.50;;;;;;5093979;28;20504;-72
2021/03/31 13:06:24;;;;;;;3.90;0.50;;;9.10;58.00;;;;;;5093836;28;20124;-72
2021/03/31 13:08:53;;;;;;;2.58;0.55;;;9.10;57.80;;;;;;5093801;28;20066;-72
2021/03/31 13:11:21;;;;;;;7.40;0.70;;;9.10;58.00;;;;;;5093836;28;20103;-72
2021/03/31 13:32:33;;;;;;;5.05;0.50;;;9.10;55.50;;;;;;5091933;28;20073;-75
2021/03/31 13:38:40;;;;;;;8.65;0.80;;;9.10;55.30;;;;;;5081076;28;20047;-74
2021/03/31 13:40:40;;;;;;;4.22;0.50;;;9.10;55.90;;;;;;5079131;28;20609;-75
2021/03/31 13:43:06;;;;;;;7.10;0.50;;;9.10;56.20;;;;;;5093437;28;20106;-75
2021/03/31 13:45:32;;;;;;;3.63;0.70;;;9.10;56.50;;;;;;5093562;28;20016;-74
2021/03/31 13:48:11;;;;;;;1.85;0.40;;;9.20;56.70;;;;;;5092598;28;20467;-74
2021/03/31 13:50:36;;;;;;;6.40;0.70;;;9.20;56.80;;;;;;5092859;28;20020;-74
2021/03/31 13:53:03;;;;;;;3.92;0.40;;;9.20;56.80;;;;;;5093011;28;20597;-74
2021/03/31 13:55:32;;;;;;;2.92;0.40;;;9.20;56.50;;;;;;5093364;28;20024;-74
2021/03/31 13:58:00;;;;;;;0.82;0.32;;;9.20;56.90;;;;;;5078789;28;20066;-74
2021/03/31 14:00:27;;;;;;;1.90;0.30;;;9.20;57.30;;;;;;5093266;28;20078;-75
2021/03/31 14:02:55;;;;;;;4.38;0.40;;;9.20;56.30;;;;;;5092703;28;20020;-75
2021/03/31 14:05:23;;;;;;;1.30;0.50;;;9.20;57.10;;;;;;5093316;28;20035;-74
2021/03/31 14:07:49;;;;;;;4.25;0.40;;;9.20;56.70;;;;;;5092558;28;20016;-73
2021/03/31 14:10:16;;;;;;;6.10;0.40;;;9.10;56.40;;;;;;5093006;28;20107;-74
2021/03/31 14:12:43;;;;;;;2.90;0.40;;;9.10;56.50;;;;;;5091933;28;20035;-74
2021/03/31 14:15:09;;;;;;;4.55;0.50;;;9.10;56.50;;;;;;5092616;28;20051;-74
2021/03/31 14:17:36;;;;;;;3.42;0.98;;;9.10;56.40;;;;;;5092519;28;20059;-74
2021/03/31 14:20:09;;;;;;;6.90;0.80;;;9.10;56.80;;;;;;5078348;28;20101;-75
2021/03/31 14:22:35;;;;;;;3.47;1.40;;;9.10;56.90;;;;;;5092069;28;20031;-75
2021/03/31 14:25:03;;;;;;;3.78;0.95;;;9.10;57.10;;;;;;5095554;28;20032;-75
2021/03/31 14:27:29;;;;;;;0.30;0.30;;;9.10;57.10;;;;;;5093584;28;20589;-75
2021/03/31 14:29:55;;;;;;;4.00;0.50;;;9.10;57.00;;;;;;5092068;28;20840;-75
2021/03/31 14:32:21;;;;;;;0.60;0.32;;;9.00;56.90;;;;;;5092090;28;20103;-74
2021/03/31 14:34:47;;;;;;;0.30;0.30;;;9.00;57.10;;;;;;5091909;28;20030;-74
2021/03/31 14:37:14;;;;;;;1.05;0.30;;;9.00;57.40;;;;;;5092032;28;20036;-75
2021/03/31 14:39:41;;;;;;;0.40;0.30;;;9.00;57.50;;;;;;5092073;28;20369;-75
2021/03/31 14:42:07;;;;;;;1.20;0.80;;;9.00;57.40;;;;;;5092145;28;20028;-75
2021/03/31 14:44:33;;;;;;;4.47;0.40;;;9.00;56.90;;;;;;5092022;28;20115;-75
2021/03/31 14:46:59;;;;;;;0.88;0.30;;;8.90;56.50;;;;;;5091826;28;20111;-75
2021/03/31 14:49:27;;;;;;;1.95;0.30;;;8.90;56.60;;;;;;5091797;28;20040;-73
2021/03/31 15:00:09;;;;;;;2.45;0.35;;;8.80;56.50;;;;;;5092352;28;20074;-71
2021/03/31 15:02:35;;;;;;;2.03;0.60;;;8.80;57.30;;;;;;5088453;28;20020;-74
2021/03/31 15:05:01;;;;;;;1.80;0.52;;;9.00;57.60;;;;;;5091764;28;20050;-74
2021/03/31 15:07:26;;;;;;;3.78;0.57;;;8.90;56.50;;;;;;5091573;28;20016;-74
2021/03/31 15:09:52;;;;;;;0.30;0.30;;;8.80;56.50;;;;;;5091683;28;20024;-74
2021/03/31 15:12:18;;;;;;;2.05;0.40;;;8.80;56.80;;;;;;5091910;28;20054;-73
2021/03/31 15:14:44;;;;;;;1.13;0.40;;;8.80;56.90;;;;;;5091086;28;20117;-73
2021/03/31 15:17:10;;;;;;;0.30;0.30;;;8.80;56.80;;;;;;5091764;28;20047;-74
2021/03/31 15:24:50;;;;;;;13.98;0.50;;;8.80;57.40;;;;;;5088516;28;20077;-74
2021/03/31 15:27:16;;;;;;;5.93;0.50;;;8.90;57.60;;;;;;5092017;28;20032;-74
2021/03/31 15:29:42;;;;;;;4.53;0.82;;;8.80;57.20;;;;;;5091305;28;20016;-69
2021/03/31 15:32:08;;;;;;;1.55;0.30;;;8.80;59.30;;;;;;5091984;28;20484;-74
2021/03/31 15:34:34;;;;;;;2.40;0.30;;;10.00;61.50;;;;;;5091342;28;20012;-74
2021/03/31 15:37:00;;;;;;;4.68;0.75;;;9.60;56.50;;;;;;5091240;28;20035;-74
2021/03/31 15:39:26;;;;;;;2.95;0.60;;;9.40;57.10;;;;;;5091434;28;20020;-72
2021/03/31 15:41:56;;;;;;;6.43;0.30;;;9.20;56.90;;;;;;5091054;28;20027;-73
2021/03/31 15:44:22;;;;;;;4.13;0.47;;;9.00;56.60;;;;;;5091461;28;20028;-73
2021/03/31 15:46:54;;;;;;;3.33;0.63;;;8.90;57.20;;;;;;5091085;28;20483;-72
2021/03/31 15:49:20;;;;;;;0.30;0.30;;;8.90;57.30;;;;;;5090810;28;20024;-73
2021/03/31 15:51:45;;;;;;;6.10;0.40;;;8.80;57.20;;;;;;5091337;28;20395;-73
2021/03/31 15:54:11;;;;;;;2.28;0.30;;;8.70;57.50;;;;;;5091143;28;20460;-73
2021/03/31 15:56:37;;;;;;;0.28;0.28;;;8.70;57.40;;;;;;5091172;28;20040;-73
2021/03/31 15:59:03;;;;;;;3.63;0.60;;;8.60;57.10;;;;;;5091098;28;20016;-73
2021/03/31 16:01:29;;;;;;;0.30;0.30;;;8.60;57.60;;;;;;5091514;28;20028;-73
2021/03/31 16:04:01;;;;;;;3.92;0.35;;;8.50;57.80;;;;;;5091011;28;20391;-73
2021/03/31 16:09:11;;;;;;;1.85;0.30;;;8.40;57.50;;;;;;5091154;28;20046;-73
2021/03/31 16:11:36;;;;;;;0.30;0.30;;;8.30;57.80;;;;;;5091143;28;20580;-73
2021/03/31 16:14:02;;;;;;;1.95;0.55;;;8.30;57.90;;;;;;5090927;28;20040;-73
2021/03/31 16:16:28;;;;;;;0.82;0.30;;;8.30;58.20;;;;;;5091056;28;20561;-73
2021/03/31 16:18:54;;;;;;;2.13;0.40;;;8.30;58.20;;;;;;5091164;28;20525;-73
2021/03/31 16:21:19;;;;;;;0.55;0.35;;;8.20;58.20;;;;;;5090978;28;20035;-73
2021/03/31 16:23:46;;;;;;;6.68;0.50;;;8.20;58.50;;;;;;5091133;28;20035;-73
2021/03/31 16:26:12;;;;;;;2.92;0.40;;;8.20;58.70;;;;;;5090834;28;20067;-72
2021/03/31 16:28:52;;;;;;;2.72;0.40;;;8.20;58.70;;;;;;5091077;28;20048;-71
2021/03/31 16:33:55;;;;;;;4.55;0.50;;;8.00;58.70;;;;;;5090609;28;20027;-72
2021/03/31 16:36:22;;;;;;;1.15;0.30;;;7.90;58.60;;;;;;5090063;28;20475;-71
2021/03/31 16:38:48;;;;;;;2.03;0.40;;;7.90;58.80;;;;;;5093655;28;20103;-71
2021/03/31 16:41:14;;;;;;;1.70;0.40;;;7.80;59.00;;;;;;5093834;28;20103;-72
2021/03/31 16:43:40;;;;;;;2.65;0.60;;;7.80;59.10;;;;;;5091854;28;20147;-72
2021/03/31 16:46:06;;;;;;;1.85;0.40;;;7.70;59.00;;;;;;5092862;28;20043;-72
2021/03/31 16:48:32;;;;;;;2.75;0.50;;;7.70;59.20;;;;;;5093641;28;20111;-72
2021/03/31 16:50:58;;;;;;;0.85;0.40;;;7.70;59.30;;;;;;5093669;28;20016;-71
2021/03/31 16:53:24;;;;;;;5.13;0.65;;;7.60;59.30;;;;;;5093891;28;20059;-72
2021/03/31 16:55:49;;;;;;;1.98;0.52;;;7.60;60.30;;;;;;5093429;28;20044;-73
2021/03/31 16:58:15;;;;;;;2.47;0.40;;;7.50;59.40;;;;;;5091041;28;20435;-74
2021/03/31 17:00:41;;;;;;;0.73;0.35;;;7.50;59.50;;;;;;5092457;28;20115;-73
2021/03/31 17:03:07;;;;;;;2.00;0.50;;;7.40;59.50;;;;;;5093257;28;20077;-73
2021/03/31 17:05:32;;;;;;;4.95;0.50;;;7.40;59.80;;;;;;5090903;28;20019;-73
2021/03/31 17:07:58;;;;;;;1.55;0.50;;;7.50;59.70;;;;;;5093229;28;20468;-73
2021/03/31 17:10:26;;;;;;;10.07;0.90;;;7.30;60.00;;;;;;5106941;28;20027;-73
2021/03/31 17:12:52;;;;;;;5.93;1.10;;;7.30;59.70;;;;;;5092967;28;20024;-72
2021/03/31 17:15:19;;;;;;;2.33;0.50;;;7.30;59.80;;;;;;5093137;28;20040;-72
2021/03/31 17:17:45;;;;;;;13.63;0.98;;;7.20;59.70;;;;;;5092786;28;20471;-76
2021/03/31 17:20:11;;;;;;;3.95;0.75;;;7.20;60.00;;;;;;5093038;28;20036;-71
2021/03/31 17:22:37;;;;;;;6.32;0.77;;;7.10;59.70;;;;;;5090590;28;20020;-71
2021/03/31 17:25:04;;;;;;;13.77;1.52;;;7.20;60.40;;;;;;5087773;28;20028;-71
2021/03/31 17:27:30;;;;;;;14.07;1.52;;;7.10;60.20;;;;;;5093240;28;20104;-71
2021/03/31 17:29:56;;;;;;;6.47;0.75;;;7.00;60.40;;;;;;5091882;28;20515;-70
2021/03/31 17:32:22;;;;;;;14.32;1.15;;;7.00;60.70;;;;;;5090973;28;20024;-70
2021/03/31 17:34:48;;;;;;;6.15;0.60;;;7.10;60.80;;;;;;5092597;28;20026;-71
2021/03/31 17:37:14;;;;;;;11.48;0.90;;;7.00;60.50;;;;;;5092758;28;20035;-70
2021/03/31 17:39:40;;;;;;;11.93;0.77;;;6.90;60.80;;;;;;5092757;28;20035;-71
2021/03/31 17:42:06;;;;;;;2.10;0.40;;;6.90;61.20;;;;;;5092307;28;20385;-71
2021/03/31 17:44:32;;;;;;;8.02;0.57;;;6.90;60.90;;;;;;5089680;28;20088;-71
2021/03/31 17:47:05;;;;;;;1.00;0.40;;;6.90;61.10;;;;;;5089095;28;20134;-71
2021/03/31 17:49:38;;;;;;;4.70;0.50;;;6.90;60.70;;;;;;5089864;28;20029;-71
2021/03/31 17:52:15;;;;;;;12.05;0.47;;;6.80;60.90;;;;;;5090411;28;20027;-71
2021/03/31 17:54:40;;;;;;;4.07;0.50;;;6.70;61.20;;;;;;5086318;28;20028;-72
2021/03/31 17:57:06;;;;;;;7.55;0.50;;;6.70;65.00;;;;;;5088339;28;20308;-72
2021/03/31 17:59:34;;;;;;;0.75;0.40;;;6.90;62.50;;;;;;5086969;28;20027;-72
2021/03/31 18:02:00;;;;;;;3.05;0.32;;;7.10;66.10;;;;;;5082961;28;20031;-72
2021/03/31 18:04:26;;;;;;;1.88;0.80;;;7.00;61.40;;;;;;5085623;28;20024;-70
2021/03/31 18:06:55;;;;;;;1.05;0.60;;;6.90;61.20;;;;;;5089516;28;20022;-70
2021/03/31 18:09:21;;;;;;;1.00;0.50;;;6.80;61.30;;;;;;5092476;28;20352;-69
2021/03/31 18:11:47;;;;;;;0.57;0.50;;;6.70;61.50;;;;;;5092441;28;20027;-70
2021/03/31 18:14:13;;;;;;;0.40;0.40;;;6.60;61.70;;;;;;5092199;28;20398;-69
2021/03/31 18:16:39;;;;;;;6.85;0.82;;;6.50;61.80;;;;;;5089991;28;20103;-69